createdAt,value
2019-04-03T00:02:17.661Z,100091.92
2019-04-03T00:07:41.105Z,100092.64
2019-04-03T00:13:05.048Z,100102.48
2019-04-03T00:18:28.923Z,100096.91
2019-04-03T00:23:53.684Z,100085.91
2019-04-03T00:29:17.665Z,100095.52
2019-04-03T00:34:42.355Z,100094.59
2019-04-03T00:40:07.520Z,100097.61
2019-04-03T00:45:31.464Z,100089.77
2019-04-03T00:50:57.290Z,100093.52
2019-04-03T00:56:26.100Z,100106.39
2019-04-03T01:01:49.387Z,100100.36
2019-04-03T01:07:13.562Z,100106.53
2019-04-03T01:12:37.171Z,100098.94
2019-04-03T01:18:04.312Z,100093.81
2019-04-03T01:23:28.196Z,100086.70
2019-04-03T01:28:52.707Z,100077.76
2019-04-03T01:34:17.807Z,100073.38
2019-04-03T01:39:43.059Z,100068.03
2019-04-03T01:45:08.077Z,100066.73
2019-04-03T01:50:32.100Z,100052.58
2019-04-03T01:55:56.846Z,100043.42
2019-04-03T02:01:20.620Z,100043.87
2019-04-03T02:06:45.154Z,100030.34
2019-04-03T02:12:09.689Z,100021.17
2019-04-03T02:17:35.415Z,100036.26
2019-04-03T02:23:00.579Z,100036.61
2019-04-03T02:28:24.468Z,100034.81
2019-04-03T02:33:49.333Z,100017.10
2019-04-03T02:39:13.972Z,100014.38
2019-04-03T02:44:39.099Z,100010.75
2019-04-03T02:50:04.043Z,100009.58
2019-04-03T02:55:28.317Z,100006.95
2019-04-03T03:00:53.325Z,100005.84
2019-04-03T03:06:18.420Z,100014.00
2019-04-03T03:11:44.446Z,100019.39
2019-04-03T03:17:10.060Z,100026.24
2019-04-03T03:22:37.798Z,100021.12
2019-04-03T03:28:01.937Z,100026.55
2019-04-03T03:33:35.672Z,100017.36
2019-04-03T03:38:54.469Z,100020.44
2019-04-03T03:44:22.744Z,100001.00
2019-04-03T03:49:50.681Z,100000.78
2019-04-03T03:55:15.472Z,99994.31
2019-04-03T04:00:39.852Z,100003.57
2019-04-03T04:06:03.557Z,100000.70
2019-04-03T04:11:30.880Z,100006.48
2019-04-03T04:16:55.553Z,100014.23
2019-04-03T04:22:20.297Z,100031.09
2019-04-03T04:27:44.382Z,100011.64
2019-04-03T04:33:09.288Z,100004.25
2019-04-03T04:38:32.903Z,100013.98
2019-04-03T04:43:57.651Z,100014.34
2019-04-03T04:49:22.655Z,100002.63
2019-04-03T04:54:47.158Z,99991.06
2019-04-03T05:00:11.964Z,99990.02
2019-04-03T05:05:36.764Z,99994.89
2019-04-03T05:11:01.037Z,100003.58
2019-04-03T05:16:25.887Z,100001.48
2019-04-03T05:21:50.794Z,100006.05
2019-04-03T05:27:16.081Z,100001.44
2019-04-03T05:32:41.191Z,100002.39
2019-04-03T05:38:06.775Z,99999.34
2019-04-03T05:43:31.579Z,99998.42
2019-04-03T05:48:55.642Z,100003.70
2019-04-03T05:54:19.983Z,99999.97
2019-04-03T05:59:44.779Z,99999.41
2019-04-03T06:05:11.258Z,100004.45
2019-04-03T06:10:36.565Z,100000.34
2019-04-03T06:15:59.706Z,99989.90
2019-04-03T06:21:24.200Z,99993.95
2019-04-03T06:26:48.325Z,99993.36
2019-04-03T06:32:11.997Z,99985.44
2019-04-03T06:37:36.189Z,99982.96
2019-04-03T06:43:00.304Z,99974.42
2019-04-03T06:48:24.239Z,99982.98
2019-04-03T06:53:49.083Z,99978.23
2019-04-03T06:59:14.500Z,99976.91
2019-04-03T07:04:38.942Z,99971.09
2019-04-03T07:10:04.245Z,99969.55
2019-04-03T07:15:28.471Z,99963.53
2019-04-03T07:20:52.720Z,99973.02
2019-04-03T07:26:17.415Z,99977.52
2019-04-03T07:31:41.051Z,99976.95
2019-04-03T07:37:06.667Z,99986.63
2019-04-03T07:42:30.537Z,99974.55
2019-04-03T07:47:54.729Z,99976.63
2019-04-03T07:53:19.882Z,99974.02
2019-04-03T07:58:44.766Z,99982.86
2019-04-03T08:04:09.277Z,99981.73
2019-04-03T08:09:33.743Z,99974.17
2019-04-03T08:14:58.030Z,99964.98
2019-04-03T08:20:23.742Z,99978.55
2019-04-03T08:25:49.376Z,99977.45
2019-04-03T08:31:14.009Z,99968.75
2019-04-03T08:36:39.493Z,99969.48
2019-04-03T08:42:03.709Z,99964.45
2019-04-03T08:47:28.697Z,99957.25
2019-04-03T08:52:52.495Z,99955.59
2019-04-03T08:58:17.209Z,99939.32
2019-04-03T09:03:41.108Z,99935.23
2019-04-03T09:09:08.852Z,99937.09
2019-04-03T09:14:32.842Z,99927.25
2019-04-03T09:19:57.406Z,99929.47
2019-04-03T09:25:21.921Z,99931.00
2019-04-03T09:30:47.965Z,99925.13
2019-04-03T09:36:12.415Z,99914.28
2019-04-03T09:41:36.464Z,99903.72
2019-04-03T09:47:03.131Z,99892.40
2019-04-03T09:52:37.963Z,99878.42
2019-04-03T09:57:53.407Z,99875.74
2019-04-03T10:03:17.298Z,99867.53
2019-04-03T10:08:41.595Z,99860.73
2019-04-03T10:14:06.233Z,99856.67
2019-04-03T10:19:30.806Z,99855.55
2019-04-03T10:24:55.277Z,99846.95
2019-04-03T10:30:21.491Z,99846.95
2019-04-03T10:35:47.262Z,99826.25
2019-04-03T10:41:11.688Z,99826.25
2019-04-03T10:46:35.748Z,99829.50
2019-04-03T10:52:00.204Z,99806.44
2019-04-03T10:57:24.562Z,99806.44
2019-04-03T11:02:49.807Z,99808.80
2019-04-03T11:08:14.114Z,99796.31
2019-04-03T11:13:38.754Z,99799.98
2019-04-03T11:19:06.602Z,99790.61
2019-04-03T11:24:30.149Z,99782.55
2019-04-03T11:29:54.276Z,99771.33
2019-04-03T11:35:21.942Z,99754.51
2019-04-03T11:40:44.429Z,99744.81
2019-04-03T11:46:08.654Z,99748.92
2019-04-03T11:51:34.006Z,99745.58
2019-04-03T11:56:59.365Z,99730.41
2019-04-03T12:02:23.190Z,99718.92
2019-04-03T12:07:47.143Z,99714.58
2019-04-03T12:13:13.584Z,99709.02
2019-04-03T12:18:37.352Z,99705.98
2019-04-03T12:24:00.929Z,99700.16
2019-04-03T12:29:26.405Z,99697.66
2019-04-03T12:34:51.273Z,99699.81
2019-04-03T12:40:16.840Z,99695.03
2019-04-03T12:45:42.567Z,99701.19
2019-04-03T12:51:06.694Z,99695.73
2019-04-03T12:56:31.501Z,99698.27
2019-04-03T13:01:56.154Z,99704.37
2019-04-03T13:07:20.459Z,99704.37
2019-04-03T13:12:45.162Z,99704.27
2019-04-03T13:18:09.826Z,99696.77
2019-04-03T13:23:33.875Z,99697.39
2019-04-03T13:28:57.572Z,99702.45
2019-04-03T13:34:22.159Z,99703.30
2019-04-03T13:39:47.246Z,99696.00
2019-04-03T13:45:12.458Z,99693.09
2019-04-03T13:50:36.195Z,99687.59
2019-04-03T13:56:01.140Z,99680.70
2019-04-03T14:01:27.600Z,99675.55
2019-04-03T14:06:50.565Z,99659.97
2019-04-03T14:12:17.028Z,99661.93
2019-04-03T14:17:53.412Z,99655.04
2019-04-03T14:23:06.621Z,99643.35
2019-04-03T14:28:33.367Z,99640.33
2019-04-03T14:33:57.406Z,99637.75
2019-04-03T14:39:22.802Z,99638.94
2019-04-03T14:44:47.630Z,99631.35
2019-04-03T14:50:11.637Z,99621.45
2019-04-03T14:55:46.639Z,99607.83
2019-04-03T15:01:07.044Z,99617.28
2019-04-03T15:06:31.083Z,99621.13
2019-04-03T15:11:54.772Z,99611.75
2019-04-03T15:17:20.435Z,99602.99
2019-04-03T15:22:44.202Z,99597.42
2019-04-03T15:28:08.301Z,99603.23
2019-04-03T15:33:33.054Z,99600.46
2019-04-03T15:38:59.669Z,99593.49
2019-04-03T15:44:23.848Z,99588.75
2019-04-03T15:49:48.184Z,99584.94
2019-04-03T15:55:12.368Z,99570.47
2019-04-03T16:00:36.772Z,99570.47
2019-04-03T16:06:03.479Z,99573.50
2019-04-03T16:11:28.551Z,99557.06
2019-04-03T16:16:52.436Z,99555.72
2019-04-03T16:22:16.854Z,99553.69
2019-04-03T16:27:42.014Z,99558.14
2019-04-03T16:33:19.018Z,99557.19
2019-04-03T16:38:32.541Z,99546.16
2019-04-03T16:43:57.419Z,99542.27
2019-04-03T16:49:22.819Z,99549.43
2019-04-03T16:54:47.484Z,99541.64
2019-04-03T17:00:11.644Z,99540.97
2019-04-03T17:05:36.636Z,99529.28
2019-04-03T17:11:01.473Z,99525.33
2019-04-03T17:16:25.624Z,99513.97
2019-04-03T17:21:51.518Z,99521.87
2019-04-03T17:27:15.406Z,99522.42
2019-04-03T17:32:40.939Z,99513.44
2019-04-03T17:38:06.204Z,99516.41
2019-04-03T17:43:30.942Z,99523.30
2019-04-03T17:48:56.007Z,99525.42
2019-04-03T17:54:20.257Z,99529.22
2019-04-03T17:59:45.146Z,99514.85
2019-04-03T18:05:10.855Z,99525.06
2019-04-03T18:10:34.689Z,99524.98
2019-04-03T18:15:59.451Z,99510.55
2019-04-03T18:21:24.806Z,99506.92
2019-04-03T18:26:48.985Z,99502.97
2019-04-03T18:32:13.639Z,99500.98
2019-04-03T18:37:40.917Z,99502.20
2019-04-03T18:43:03.643Z,99493.84
2019-04-03T18:48:28.865Z,99495.91
2019-04-03T18:53:53.435Z,99492.81
2019-04-03T18:59:17.976Z,99488.92
2019-04-03T19:04:43.813Z,99493.11
2019-04-03T19:10:08.345Z,99487.39
2019-04-03T19:15:33.688Z,99482.36
2019-04-03T19:20:59.102Z,99475.30
2019-04-03T19:26:23.767Z,99474.23
2019-04-03T19:31:48.507Z,99467.52
2019-04-03T19:37:12.340Z,99468.86
2019-04-03T19:42:37.110Z,99469.84
2019-04-03T19:48:02.002Z,99467.70
2019-04-03T19:53:27.164Z,99472.49
2019-04-03T19:58:51.762Z,99465.26
2019-04-03T20:04:16.389Z,99456.70
2019-04-03T20:09:41.073Z,99458.88
2019-04-03T20:15:06.997Z,99465.45
2019-04-03T20:20:33.572Z,99453.92
2019-04-03T20:25:58.261Z,99455.72
2019-04-03T20:31:22.855Z,99461.83
2019-04-03T20:36:47.192Z,99459.03
2019-04-03T20:42:12.323Z,99459.36
2019-04-03T20:47:39.954Z,99456.21
2019-04-03T20:53:04.162Z,99459.52
2019-04-03T20:58:28.845Z,99465.80
2019-04-03T21:03:53.523Z,99467.09
2019-04-03T21:09:17.405Z,99467.77
2019-04-03T21:14:41.552Z,99475.66
2019-04-03T21:20:06.581Z,99477.48
2019-04-03T21:25:31.258Z,99477.64
2019-04-03T21:30:55.501Z,99476.67
2019-04-03T21:36:19.722Z,99488.51
2019-04-03T21:41:43.378Z,99476.48
2019-04-03T21:47:07.901Z,99481.25
2019-04-03T21:52:36.217Z,99480.73
2019-04-03T21:57:58.185Z,99479.91
2019-04-03T22:03:21.955Z,99473.12
2019-04-03T22:08:46.337Z,99475.93
2019-04-03T22:14:11.045Z,99475.61
2019-04-03T22:19:36.489Z,99472.16
2019-04-03T22:25:00.125Z,99468.55
2019-04-03T22:30:24.711Z,99465.62
2019-04-03T22:35:49.190Z,99462.14
2019-04-03T22:41:13.218Z,99467.91
2019-04-03T22:46:36.879Z,99459.19
2019-04-03T22:52:01.399Z,99466.42
2019-04-03T22:57:26.507Z,99450.77
2019-04-03T23:02:50.686Z,99450.23
2019-04-03T23:08:14.679Z,99448.10
2019-04-03T23:13:39.425Z,99435.44
2019-04-03T23:19:04.106Z,99436.92
2019-04-03T23:24:29.416Z,99430.46
2019-04-03T23:29:54.569Z,99442.77
2019-04-03T23:35:20.570Z,99434.70
2019-04-03T23:40:45.631Z,99424.13
2019-04-03T23:46:09.373Z,99421.67
2019-04-03T23:51:34.491Z,99411.44
2019-04-03T23:56:59.121Z,99425.22
